sensor_id;sensor_type;location;lat;lon;timestamp;pressure;altitude;pressure_sealevel;temperature;humidity
39789;BME280;25478;42.626;23.320;2023-02-18T00:00:17;93807.38;;;2.34;64.45
39789;BME280;25478;42.626;23.320;2023-02-18T00:02:44;93800.19;;;2.31;64.35
39789;BME280;25478;42.626;23.320;2023-02-18T00:05:11;93800.19;;;2.31;64.74
39789;BME280;25478;42.626;23.320;2023-02-18T00:07:38;93802.34;;;2.29;65.03
39789;BME280;25478;42.626;23.320;2023-02-18T00:10:06;93796.22;;;2.25;65.33
39789;BME280;25478;42.626;23.320;2023-02-18T00:12:32;93780.16;;;2.14;65.00
39789;BME280;25478;42.626;23.320;2023-02-18T00:14:58;93781.97;;;2.14;65.07
39789;BME280;25478;42.626;23.320;2023-02-18T00:17:24;93779.25;;;2.19;65.56
39789;BME280;25478;42.626;23.320;2023-02-18T00:19:49;93778.00;;;2.16;65.43
39789;BME280;25478;42.626;23.320;2023-02-18T00:22:15;93776.94;;;2.17;65.44
39789;BME280;25478;42.626;23.320;2023-02-18T00:24:41;93750.03;;;2.05;65.19
39789;BME280;25478;42.626;23.320;2023-02-18T00:27:06;93766.53;;;2.17;65.36
39789;BME280;25478;42.626;23.320;2023-02-18T00:29:32;93757.09;;;2.13;65.71
39789;BME280;25478;42.626;23.320;2023-02-18T00:31:57;93754.50;;;2.13;65.89
39789;BME280;25478;42.626;23.320;2023-02-18T00:34:23;93749.59;;;2.11;65.94
39789;BME280;25478;42.626;23.320;2023-02-18T00:36:49;93745.00;;;2.08;66.07
39789;BME280;25478;42.626;23.320;2023-02-18T00:39:14;93749.72;;;2.06;66.20
39789;BME280;25478;42.626;23.320;2023-02-18T00:41:40;93750.50;;;2.07;65.86
39789;BME280;25478;42.626;23.320;2023-02-18T00:44:06;93744.09;;;2.04;65.94
39789;BME280;25478;42.626;23.320;2023-02-18T00:46:33;93747.56;;;2.00;65.77
39789;BME280;25478;42.626;23.320;2023-02-18T00:48:59;93743.75;;;1.97;66.05
39789;BME280;25478;42.626;23.320;2023-02-18T00:51:25;93748.50;;;1.95;66.43
39789;BME280;25478;42.626;23.320;2023-02-18T00:53:50;93750.91;;;1.91;65.80
39789;BME280;25478;42.626;23.320;2023-02-18T00:56:17;93755.34;;;1.91;66.03
39789;BME280;25478;42.626;23.320;2023-02-18T00:58:43;93758.88;;;1.86;66.14
39789;BME280;25478;42.626;23.320;2023-02-18T01:01:10;93752.72;;;1.82;66.41
39789;BME280;25478;42.626;23.320;2023-02-18T01:03:37;93730.72;;;1.71;66.31
39789;BME280;25478;42.626;23.320;2023-02-18T01:06:04;93749.84;;;1.84;66.81
39789;BME280;25478;42.626;23.320;2023-02-18T01:08:31;93748.75;;;1.85;66.48
39789;BME280;25478;42.626;23.320;2023-02-18T01:10:58;93741.28;;;1.83;66.54
39789;BME280;25478;42.626;23.320;2023-02-18T01:13:25;93745.13;;;1.86;66.31
39789;BME280;25478;42.626;23.320;2023-02-18T01:15:52;93748.19;;;1.88;66.27
39789;BME280;25478;42.626;23.320;2023-02-18T01:18:18;93739.63;;;1.87;66.70
39789;BME280;25478;42.626;23.320;2023-02-18T01:20:44;93742.53;;;1.86;66.45
39789;BME280;25478;42.626;23.320;2023-02-18T01:23:11;93740.22;;;1.84;66.86
39789;BME280;25478;42.626;23.320;2023-02-18T01:25:37;93722.31;;;1.74;66.85
39789;BME280;25478;42.626;23.320;2023-02-18T01:28:04;93749.41;;;1.90;66.51
39789;BME280;25478;42.626;23.320;2023-02-18T01:30:30;93741.31;;;1.92;66.28
39789;BME280;25478;42.626;23.320;2023-02-18T01:32:56;93739.19;;;1.94;66.63
39789;BME280;25478;42.626;23.320;2023-02-18T01:35:22;93739.94;;;1.94;66.50
39789;BME280;25478;42.626;23.320;2023-02-18T01:37:48;93739.66;;;1.96;66.96
39789;BME280;25478;42.626;23.320;2023-02-18T01:40:19;93724.38;;;1.94;66.70
39789;BME280;25478;42.626;23.320;2023-02-18T01:42:45;93743.78;;;2.06;66.65
39789;BME280;25478;42.626;23.320;2023-02-18T01:48:00;93741.03;;;2.11;66.21
39789;BME280;25478;42.626;23.320;2023-02-18T01:50:28;93746.53;;;2.09;66.13
39789;BME280;25478;42.626;23.320;2023-02-18T01:52:54;93734.78;;;2.12;65.72
39789;BME280;25478;42.626;23.320;2023-02-18T01:55:20;93752.78;;;2.17;65.59
39789;BME280;25478;42.626;23.320;2023-02-18T01:57:46;93748.09;;;2.19;65.33
39789;BME280;25478;42.626;23.320;2023-02-18T02:00:18;93747.78;;;2.20;65.41
39789;BME280;25478;42.626;23.320;2023-02-18T02:02:47;93766.09;;;2.15;65.31
39789;BME280;25478;42.626;23.320;2023-02-18T02:05:15;93764.69;;;2.09;65.42
39789;BME280;25478;42.626;23.320;2023-02-18T02:07:42;93759.97;;;2.03;65.85
39789;BME280;25478;42.626;23.320;2023-02-18T02:10:10;93766.22;;;2.02;65.85
39789;BME280;25478;42.626;23.320;2023-02-18T02:21:13;93737.78;;;1.79;66.52
39789;BME280;25478;42.626;23.320;2023-02-18T02:24:17;93727.38;;;1.71;66.63
39789;BME280;25478;42.626;23.320;2023-02-18T02:29:29;93727.06;;;1.72;66.61
39789;BME280;25478;42.626;23.320;2023-02-18T02:37:24;93732.41;;;1.76;66.37
39789;BME280;25478;42.626;23.320;2023-02-18T02:40:21;93722.94;;;1.71;66.40
39789;BME280;25478;42.626;23.320;2023-02-18T02:43:11;93725.84;;;1.69;66.48
39789;BME280;25478;42.626;23.320;2023-02-18T02:46:37;93738.03;;;1.60;67.04
39789;BME280;25478;42.626;23.320;2023-02-18T02:52:46;93708.84;;;1.55;66.98
39789;BME280;25478;42.626;23.320;2023-02-18T02:54:52;93696.19;;;1.53;67.61
39789;BME280;25478;42.626;23.320;2023-02-18T03:00:10;93716.31;;;1.48;68.08
39789;BME280;25478;42.626;23.320;2023-02-18T03:11:05;93735.16;;;1.71;67.46
39789;BME280;25478;42.626;23.320;2023-02-18T03:19:18;93748.25;;;1.65;67.58
39789;BME280;25478;42.626;23.320;2023-02-18T03:22:20;93754.81;;;1.63;67.32
39789;BME280;25478;42.626;23.320;2023-02-18T03:24:51;93750.41;;;1.63;67.43
39789;BME280;25478;42.626;23.320;2023-02-18T03:28:04;93746.28;;;1.62;67.28
39789;BME280;25478;42.626;23.320;2023-02-18T03:30:13;93743.69;;;1.62;67.22
39789;BME280;25478;42.626;23.320;2023-02-18T03:32:40;93738.50;;;1.62;67.45
39789;BME280;25478;42.626;23.320;2023-02-18T03:35:12;93739.25;;;1.63;67.33
39789;BME280;25478;42.626;23.320;2023-02-18T03:37:42;93756.34;;;1.64;67.24
39789;BME280;25478;42.626;23.320;2023-02-18T03:40:10;93766.72;;;1.64;67.56
39789;BME280;25478;42.626;23.320;2023-02-18T03:42:36;93776.66;;;1.62;67.03
39789;BME280;25478;42.626;23.320;2023-02-18T03:45:02;93757.06;;;1.47;67.31
39789;BME280;25478;42.626;23.320;2023-02-18T03:47:28;93783.69;;;1.61;67.59
39789;BME280;25478;42.626;23.320;2023-02-18T03:49:54;93790.22;;;1.59;67.90
39789;BME280;25478;42.626;23.320;2023-02-18T03:52:19;93798.59;;;1.56;67.58
39789;BME280;25478;42.626;23.320;2023-02-18T03:54:45;93800.44;;;1.55;67.86
39789;BME280;25478;42.626;23.320;2023-02-18T03:57:10;93805.16;;;1.53;68.17
39789;BME280;25478;42.626;23.320;2023-02-18T03:59:36;93786.25;;;1.53;68.00
39789;BME280;25478;42.626;23.320;2023-02-18T04:02:01;93787.59;;;1.50;68.39
39789;BME280;25478;42.626;23.320;2023-02-18T04:04:27;93773.84;;;1.50;68.46
39789;BME280;25478;42.626;23.320;2023-02-18T04:06:53;93752.28;;;1.40;68.57
39789;BME280;25478;42.626;23.320;2023-02-18T04:09:18;93748.34;;;1.43;68.17
39789;BME280;25478;42.626;23.320;2023-02-18T04:11:44;93747.91;;;1.50;68.58
39789;BME280;25478;42.626;23.320;2023-02-18T04:14:12;93754.91;;;1.49;68.44
39789;BME280;25478;42.626;23.320;2023-02-18T04:16:38;93755.69;;;1.50;68.20
39789;BME280;25478;42.626;23.320;2023-02-18T04:19:03;93753.09;;;1.50;68.48
39789;BME280;25478;42.626;23.320;2023-02-18T04:21:29;93743.63;;;1.45;68.48
39789;BME280;25478;42.626;23.320;2023-02-18T04:23:54;93750.94;;;1.43;68.68
39789;BME280;25478;42.626;23.320;2023-02-18T04:26:20;93732.56;;;1.31;68.98
39789;BME280;25478;42.626;23.320;2023-02-18T04:28:45;93732.41;;;1.27;69.21
39789;BME280;25478;42.626;23.320;2023-02-18T04:31:11;93722.63;;;1.24;69.74
39789;BME280;25478;42.626;23.320;2023-02-18T04:33:36;93728.13;;;1.23;69.98
39789;BME280;25478;42.626;23.320;2023-02-18T04:36:02;93726.88;;;1.20;69.93
39789;BME280;25478;42.626;23.320;2023-02-18T04:38:28;93734.50;;;1.17;70.25
39789;BME280;25478;42.626;23.320;2023-02-18T04:40:53;93727.00;;;1.15;70.38
39789;BME280;25478;42.626;23.320;2023-02-18T04:43:19;93721.13;;;1.01;70.65
39789;BME280;25478;42.626;23.320;2023-02-18T04:45:44;93742.41;;;1.11;70.54
39789;BME280;25478;42.626;23.320;2023-02-18T04:48:10;93754.31;;;1.12;70.72
39789;BME280;25478;42.626;23.320;2023-02-18T04:50:35;93743.47;;;1.10;70.84
39789;BME280;25478;42.626;23.320;2023-02-18T04:53:01;93761.31;;;1.12;70.54
39789;BME280;25478;42.626;23.320;2023-02-18T04:55:26;93747.28;;;1.13;71.01
39789;BME280;25478;42.626;23.320;2023-02-18T04:57:52;93743.94;;;1.12;70.71
39789;BME280;25478;42.626;23.320;2023-02-18T05:00:19;93739.97;;;1.15;70.84
39789;BME280;25478;42.626;23.320;2023-02-18T05:02:46;93754.34;;;1.21;70.78
39789;BME280;25478;42.626;23.320;2023-02-18T05:05:12;93747.03;;;1.23;70.66
39789;BME280;25478;42.626;23.320;2023-02-18T05:07:38;93756.03;;;1.26;70.91
39789;BME280;25478;42.626;23.320;2023-02-18T05:10:05;93772.56;;;1.30;70.39
39789;BME280;25478;42.626;23.320;2023-02-18T05:12:30;93793.75;;;1.32;70.28
39789;BME280;25478;42.626;23.320;2023-02-18T05:14:56;93789.81;;;1.34;70.04
39789;BME280;25478;42.626;23.320;2023-02-18T05:17:21;93799.28;;;1.39;69.79
39789;BME280;25478;42.626;23.320;2023-02-18T05:19:47;93790.13;;;1.41;70.10
39789;BME280;25478;42.626;23.320;2023-02-18T05:22:12;93783.00;;;1.47;69.94
39789;BME280;25478;42.626;23.320;2023-02-18T05:24:38;93748.03;;;1.36;69.40
39789;BME280;25478;42.626;23.320;2023-02-18T05:27:03;93746.84;;;1.51;69.77
39789;BME280;25478;42.626;23.320;2023-02-18T05:29:29;93753.28;;;1.53;69.43
39789;BME280;25478;42.626;23.320;2023-02-18T05:31:54;93747.78;;;1.55;69.79
39789;BME280;25478;42.626;23.320;2023-02-18T05:34:19;93719.34;;;1.41;70.03
39789;BME280;25478;42.626;23.320;2023-02-18T05:36:45;93733.44;;;1.57;69.74
39789;BME280;25478;42.626;23.320;2023-02-18T05:39:10;93721.69;;;1.60;69.72
39789;BME280;25478;42.626;23.320;2023-02-18T05:41:36;93723.81;;;1.58;69.78
39789;BME280;25478;42.626;23.320;2023-02-18T05:44:01;93725.50;;;1.62;69.82
39789;BME280;25478;42.626;23.320;2023-02-18T05:46:45;93750.28;;;1.68;69.91
39789;BME280;25478;42.626;23.320;2023-02-18T05:49:11;93741.41;;;1.69;69.79
39789;BME280;25478;42.626;23.320;2023-02-18T05:51:36;93757.16;;;1.82;69.16
39789;BME280;25478;42.626;23.320;2023-02-18T05:54:02;93763.16;;;2.00;68.83
39789;BME280;25478;42.626;23.320;2023-02-18T05:56:28;93774.81;;;2.11;68.63
39789;BME280;25478;42.626;23.320;2023-02-18T05:58:53;93777.25;;;2.24;68.40
39789;BME280;25478;42.626;23.320;2023-02-18T06:01:19;93774.22;;;2.31;68.00
39789;BME280;25478;42.626;23.320;2023-02-18T06:03:44;93769.16;;;2.43;67.52
39789;BME280;25478;42.626;23.320;2023-02-18T06:06:10;93754.38;;;2.44;67.22
39789;BME280;25478;42.626;23.320;2023-02-18T06:08:35;93756.47;;;2.50;67.03
39789;BME280;25478;42.626;23.320;2023-02-18T06:11:01;93780.03;;;2.80;66.66
39789;BME280;25478;42.626;23.320;2023-02-18T06:13:27;93786.44;;;2.91;66.05
39789;BME280;25478;42.626;23.320;2023-02-18T06:15:52;93784.16;;;2.98;65.72
39789;BME280;25478;42.626;23.320;2023-02-18T06:18:19;93782.28;;;3.07;65.84
39789;BME280;25478;42.626;23.320;2023-02-18T06:20:48;93777.06;;;3.16;65.22
39789;BME280;25478;42.626;23.320;2023-02-18T06:23:14;93778.44;;;3.22;65.07
39789;BME280;25478;42.626;23.320;2023-02-18T06:25:40;93780.25;;;3.30;65.04
39789;BME280;25478;42.626;23.320;2023-02-18T06:28:06;93763.84;;;3.38;64.43
39789;BME280;25478;42.626;23.320;2023-02-18T06:30:31;93746.75;;;3.29;64.11
39789;BME280;25478;42.626;23.320;2023-02-18T06:32:57;93769.47;;;3.49;64.92
39789;BME280;25478;42.626;23.320;2023-02-18T06:35:22;93779.41;;;3.56;64.65
39789;BME280;25478;42.626;23.320;2023-02-18T06:37:48;93765.44;;;3.60;64.07
39789;BME280;25478;42.626;23.320;2023-02-18T06:40:13;93756.06;;;3.68;64.55
39789;BME280;25478;42.626;23.320;2023-02-18T06:42:39;93760.16;;;3.78;64.23
39789;BME280;25478;42.626;23.320;2023-02-18T06:45:04;93755.22;;;3.85;64.21
39789;BME280;25478;42.626;23.320;2023-02-18T06:47:33;93751.34;;;4.00;63.74
39789;BME280;25478;42.626;23.320;2023-02-18T06:49:58;93760.00;;;4.12;63.47
39789;BME280;25478;42.626;23.320;2023-02-18T06:52:24;93756.38;;;4.26;63.14
39789;BME280;25478;42.626;23.320;2023-02-18T06:54:49;93749.41;;;4.38;62.82
39789;BME280;25478;42.626;23.320;2023-02-18T06:57:15;93746.09;;;4.50;62.63
39789;BME280;25478;42.626;23.320;2023-02-18T06:59:40;93754.44;;;4.64;62.04
39789;BME280;25478;42.626;23.320;2023-02-18T07:02:06;93753.69;;;4.76;61.62
39789;BME280;25478;42.626;23.320;2023-02-18T07:04:31;93761.38;;;4.93;61.30
39789;BME280;25478;42.626;23.320;2023-02-18T07:06:57;93745.97;;;5.00;60.69
39789;BME280;25478;42.626;23.320;2023-02-18T07:09:22;93758.94;;;5.09;60.86
39789;BME280;25478;42.626;23.320;2023-02-18T07:11:48;93764.41;;;5.16;60.41
39789;BME280;25478;42.626;23.320;2023-02-18T07:14:13;93762.78;;;5.24;60.22
39789;BME280;25478;42.626;23.320;2023-02-18T07:16:39;93760.50;;;5.34;59.54
39789;BME280;25478;42.626;23.320;2023-02-18T07:19:04;93755.44;;;5.50;58.96
39789;BME280;25478;42.626;23.320;2023-02-18T07:21:30;93729.75;;;5.52;58.93
39789;BME280;25478;42.626;23.320;2023-02-18T07:23:55;93739.44;;;5.76;58.84
39789;BME280;25478;42.626;23.320;2023-02-18T07:26:21;93714.28;;;5.72;58.63
39789;BME280;25478;42.626;23.320;2023-02-18T07:28:46;93737.06;;;5.96;57.99
39789;BME280;25478;42.626;23.320;2023-02-18T07:31:12;93738.38;;;6.02;57.48
39789;BME280;25478;42.626;23.320;2023-02-18T07:33:37;93739.56;;;6.04;56.47
39789;BME280;25478;42.626;23.320;2023-02-18T07:36:03;93730.22;;;6.03;56.07
39789;BME280;25478;42.626;23.320;2023-02-18T07:38:29;93747.09;;;6.06;55.34
39789;BME280;25478;42.626;23.320;2023-02-18T07:40:55;93747.09;;;6.06;55.26
39789;BME280;25478;42.626;23.320;2023-02-18T07:43:21;93759.09;;;6.07;54.50
39789;BME280;25478;42.626;23.320;2023-02-18T07:45:47;93761.34;;;5.96;54.71
39789;BME280;25478;42.626;23.320;2023-02-18T07:48:13;93794.34;;;6.01;55.03
39789;BME280;25478;42.626;23.320;2023-02-18T07:50:40;93790.00;;;5.92;55.11
39789;BME280;25478;42.626;23.320;2023-02-18T07:53:06;93793.13;;;5.86;55.69
39789;BME280;25478;42.626;23.320;2023-02-18T07:55:31;93796.81;;;5.85;55.37
39789;BME280;25478;42.626;23.320;2023-02-18T08:00:46;93789.03;;;6.09;54.42
39789;BME280;25478;42.626;23.320;2023-02-18T08:03:13;93774.66;;;6.15;54.71
39789;BME280;25478;42.626;23.320;2023-02-18T08:05:39;93767.53;;;6.28;54.40
39789;BME280;25478;42.626;23.320;2023-02-18T08:08:04;93762.41;;;6.44;54.02
39789;BME280;25478;42.626;23.320;2023-02-18T08:10:30;93751.47;;;6.54;53.22
39789;BME280;25478;42.626;23.320;2023-02-18T08:12:56;93759.81;;;6.72;52.48
39789;BME280;25478;42.626;23.320;2023-02-18T08:15:21;93740.44;;;6.61;51.79
39789;BME280;25478;42.626;23.320;2023-02-18T08:17:47;93764.44;;;6.91;50.86
39789;BME280;25478;42.626;23.320;2023-02-18T08:20:12;93779.75;;;7.04;50.27
39789;BME280;25478;42.626;23.320;2023-02-18T08:22:38;93787.16;;;7.15;50.41
39789;BME280;25478;42.626;23.320;2023-02-18T08:25:04;93778.06;;;7.24;49.50
39789;BME280;25478;42.626;23.320;2023-02-18T08:27:29;93780.69;;;7.40;49.59
39789;BME280;25478;42.626;23.320;2023-02-18T08:29:55;93757.97;;;7.60;49.59
39789;BME280;25478;42.626;23.320;2023-02-18T08:32:20;93736.84;;;7.69;48.82
39789;BME280;25478;42.626;23.320;2023-02-18T08:34:46;93747.31;;;7.84;47.67
39789;BME280;25478;42.626;23.320;2023-02-18T08:37:12;93744.94;;;7.95;47.11
39789;BME280;25478;42.626;23.320;2023-02-18T08:39:38;93737.66;;;8.04;46.60
39789;BME280;25478;42.626;23.320;2023-02-18T08:42:04;93741.97;;;8.12;45.65
39789;BME280;25478;42.626;23.320;2023-02-18T08:44:30;93730.78;;;8.15;45.43
39789;BME280;25478;42.626;23.320;2023-02-18T08:46:55;93749.56;;;8.17;46.07
39789;BME280;25478;42.626;23.320;2023-02-18T08:49:20;93756.75;;;8.21;46.03
39789;BME280;25478;42.626;23.320;2023-02-18T08:51:51;93753.44;;;8.24;46.17
39789;BME280;25478;42.626;23.320;2023-02-18T08:54:18;93757.00;;;8.15;46.16
39789;BME280;25478;42.626;23.320;2023-02-18T08:56:44;93774.88;;;8.10;46.74
39789;BME280;25478;42.626;23.320;2023-02-18T08:59:10;93745.34;;;7.97;46.63
39789;BME280;25478;42.626;23.320;2023-02-18T09:01:35;93776.81;;;8.13;46.93
39789;BME280;25478;42.626;23.320;2023-02-18T09:04:01;93785.38;;;8.10;46.96
39789;BME280;25478;42.626;23.320;2023-02-18T09:06:26;93784.69;;;8.13;46.59
39789;BME280;25478;42.626;23.320;2023-02-18T09:08:52;93782.56;;;8.18;46.51
39789;BME280;25478;42.626;23.320;2023-02-18T09:11:17;93785.75;;;8.28;46.58
39789;BME280;25478;42.626;23.320;2023-02-18T09:13:44;93720.25;;;7.96;46.31
39789;BME280;25478;42.626;23.320;2023-02-18T09:16:15;93785.41;;;8.45;45.49
39789;BME280;25478;42.626;23.320;2023-02-18T09:18:45;93782.19;;;8.52;45.86
39789;BME280;25478;42.626;23.320;2023-02-18T09:21:12;93784.22;;;8.58;45.43
39789;BME280;25478;42.626;23.320;2023-02-18T09:23:39;93773.72;;;8.58;45.48
39789;BME280;25478;42.626;23.320;2023-02-18T09:26:06;93758.97;;;8.54;45.37
39789;BME280;25478;42.626;23.320;2023-02-18T09:28:33;93770.75;;;8.60;44.68
39789;BME280;25478;42.626;23.320;2023-02-18T09:31:04;93767.06;;;8.64;45.18
39789;BME280;25478;42.626;23.320;2023-02-18T09:33:30;93752.94;;;8.69;44.22
39789;BME280;25478;42.626;23.320;2023-02-18T09:35:55;93761.75;;;8.80;43.86
39789;BME280;25478;42.626;23.320;2023-02-18T09:38:21;93717.13;;;8.80;43.75
39789;BME280;25478;42.626;23.320;2023-02-18T09:40:49;93729.56;;;9.02;43.31
39789;BME280;25478;42.626;23.320;2023-02-18T09:46:31;93729.25;;;9.27;42.12
39789;BME280;25478;42.626;23.320;2023-02-18T09:49:02;93744.75;;;9.55;41.69
39789;BME280;25478;42.626;23.320;2023-02-18T09:51:28;93743.47;;;9.68;42.04
39789;BME280;25478;42.626;23.320;2023-02-18T09:53:53;93750.88;;;9.85;41.34
39789;BME280;25478;42.626;23.320;2023-02-18T09:56:30;93746.56;;;10.00;40.82
39789;BME280;25478;42.626;23.320;2023-02-18T09:58:58;93749.13;;;10.20;40.84
39789;BME280;25478;42.626;23.320;2023-02-18T10:01:35;93743.00;;;10.35;40.59
39789;BME280;25478;42.626;23.320;2023-02-18T10:04:08;93741.97;;;10.43;40.54
39789;BME280;25478;42.626;23.320;2023-02-18T10:06:35;93742.72;;;10.43;40.75
39789;BME280;25478;42.626;23.320;2023-02-18T10:09:09;93742.03;;;10.50;40.89
39789;BME280;25478;42.626;23.320;2023-02-18T10:11:40;93743.34;;;10.63;40.83
39789;BME280;25478;42.626;23.320;2023-02-18T10:14:13;93739.03;;;10.78;40.67
39789;BME280;25478;42.626;23.320;2023-02-18T10:16:40;93723.16;;;10.75;40.71
39789;BME280;25478;42.626;23.320;2023-02-18T10:19:20;93722.03;;;11.06;40.38
39789;BME280;25478;42.626;23.320;2023-02-18T10:21:46;93738.00;;;11.20;40.05
39789;BME280;25478;42.626;23.320;2023-02-18T10:27:15;93738.38;;;11.22;39.68
39789;BME280;25478;42.626;23.320;2023-02-18T10:29:42;93728.16;;;11.17;39.82
39789;BME280;25478;42.626;23.320;2023-02-18T10:32:23;93731.41;;;11.40;39.81
39789;BME280;25478;42.626;23.320;2023-02-18T10:51:42;93703.91;;;11.82;38.73
39789;BME280;25478;42.626;23.320;2023-02-18T10:54:13;93700.25;;;11.97;38.51
39789;BME280;25478;42.626;23.320;2023-02-18T10:59:22;93679.41;;;12.40;38.39
39789;BME280;25478;42.626;23.320;2023-02-18T11:02:04;93670.81;;;12.61;37.86
39789;BME280;25478;42.626;23.320;2023-02-18T11:04:36;93676.53;;;12.77;37.42
39789;BME280;25478;42.626;23.320;2023-02-18T11:07:09;93670.13;;;12.85;37.32
39789;BME280;25478;42.626;23.320;2023-02-18T11:09:53;93680.69;;;12.78;37.71
39789;BME280;25478;42.626;23.320;2023-02-18T11:15:02;93670.50;;;12.77;37.74
39789;BME280;25478;42.626;23.320;2023-02-18T11:17:31;93678.81;;;12.79;37.59
39789;BME280;25478;42.626;23.320;2023-02-18T11:20:00;93668.25;;;12.82;37.70
39789;BME280;25478;42.626;23.320;2023-02-18T11:22:32;93668.63;;;12.81;37.72
39789;BME280;25478;42.626;23.320;2023-02-18T11:25:00;93655.03;;;12.79;37.60
39789;BME280;25478;42.626;23.320;2023-02-18T11:27:54;93658.03;;;12.70;37.35
39789;BME280;25478;42.626;23.320;2023-02-18T11:32:54;93625.16;;;12.57;37.29
39789;BME280;25478;42.626;23.320;2023-02-18T11:35:27;93632.75;;;12.73;37.31
39789;BME280;25478;42.626;23.320;2023-02-18T11:37:56;93629.75;;;12.85;36.92
39789;BME280;25478;42.626;23.320;2023-02-18T11:40:34;93616.59;;;12.95;36.65
39789;BME280;25478;42.626;23.320;2023-02-18T11:43:05;93607.50;;;13.00;36.38
39789;BME280;25478;42.626;23.320;2023-02-18T11:45:33;93607.53;;;13.11;36.59
39789;BME280;25478;42.626;23.320;2023-02-18T11:48:15;93600.72;;;13.17;36.65
39789;BME280;25478;42.626;23.320;2023-02-18T11:50:41;93595.13;;;13.22;36.27
39789;BME280;25478;42.626;23.320;2023-02-18T11:55:56;93595.47;;;13.42;36.22
39789;BME280;25478;42.626;23.320;2023-02-18T11:58:22;93596.25;;;13.49;36.02
39789;BME280;25478;42.626;23.320;2023-02-18T12:00:49;93586.03;;;13.55;35.63
39789;BME280;25478;42.626;23.320;2023-02-18T12:05:47;93553.50;;;13.69;35.26
39789;BME280;25478;42.626;23.320;2023-02-18T12:08:17;93578.03;;;13.98;34.92
39789;BME280;25478;42.626;23.320;2023-02-18T12:10:48;93569.66;;;14.10;34.83
39789;BME280;25478;42.626;23.320;2023-02-18T12:13:27;93542.84;;;14.04;34.86
39789;BME280;25478;42.626;23.320;2023-02-18T12:16:07;93573.78;;;14.22;34.88
39789;BME280;25478;42.626;23.320;2023-02-18T12:29:08;93559.88;;;14.84;34.56
39789;BME280;25478;42.626;23.320;2023-02-18T12:42:26;93537.72;;;15.15;34.88
39789;BME280;25478;42.626;23.320;2023-02-18T12:47:45;93523.31;;;15.16;35.40
39789;BME280;25478;42.626;23.320;2023-02-18T12:50:43;93519.16;;;15.12;35.59
39789;BME280;25478;42.626;23.320;2023-02-18T12:53:39;93519.56;;;15.10;35.42
39789;BME280;25478;42.626;23.320;2023-02-18T13:01:31;93514.34;;;15.00;35.59
39789;BME280;25478;42.626;23.320;2023-02-18T13:04:22;93522.66;;;15.02;35.47
39789;BME280;25478;42.626;23.320;2023-02-18T13:12:06;93529.41;;;15.10;36.13
39789;BME280;25478;42.626;23.320;2023-02-18T13:14:46;93524.09;;;15.13;35.78
39789;BME280;25478;42.626;23.320;2023-02-18T13:17:16;93530.91;;;15.11;35.11
39789;BME280;25478;42.626;23.320;2023-02-18T13:19:50;93520.34;;;15.07;35.59
39789;BME280;25478;42.626;23.320;2023-02-18T13:22:19;93523.75;;;15.08;35.28
39789;BME280;25478;42.626;23.320;2023-02-18T13:24:47;93516.53;;;15.08;35.39
39789;BME280;25478;42.626;23.320;2023-02-18T13:27:24;93513.50;;;15.10;36.10
39789;BME280;25478;42.626;23.320;2023-02-18T13:35:23;93526.00;;;15.09;35.72
39789;BME280;25478;42.626;23.320;2023-02-18T13:40:26;93521.50;;;15.03;35.15
39789;BME280;25478;42.626;23.320;2023-02-18T13:42:54;93520.44;;;14.97;34.89
39789;BME280;25478;42.626;23.320;2023-02-18T13:45:40;93519.03;;;14.81;35.12
39789;BME280;25478;42.626;23.320;2023-02-18T13:48:21;93514.50;;;14.75;35.03
39789;BME280;25478;42.626;23.320;2023-02-18T13:50:47;93516.81;;;14.69;35.06
39789;BME280;25478;42.626;23.320;2023-02-18T13:53:19;93510.03;;;14.64;35.29
39789;BME280;25478;42.626;23.320;2023-02-18T13:55:59;93515.03;;;14.55;35.40
39789;BME280;25478;42.626;23.320;2023-02-18T13:58:46;93495.75;;;14.44;35.97
39789;BME280;25478;42.626;23.320;2023-02-18T14:01:32;93496.91;;;14.40;35.89
39789;BME280;25478;42.626;23.320;2023-02-18T14:03:59;93507.13;;;14.37;35.98
39789;BME280;25478;42.626;23.320;2023-02-18T14:06:29;93496.56;;;14.34;36.09
39789;BME280;25478;42.626;23.320;2023-02-18T14:14:32;93498.50;;;14.23;37.07
39789;BME280;25478;42.626;23.320;2023-02-18T14:17:33;93491.03;;;14.07;37.26
39789;BME280;25478;42.626;23.320;2023-02-18T14:22:31;93499.75;;;14.00;36.69
39789;BME280;25478;42.626;23.320;2023-02-18T14:27:33;93510.81;;;13.67;36.87
39789;BME280;25478;42.626;23.320;2023-02-18T14:30:13;93514.63;;;13.48;37.16
39789;BME280;25478;42.626;23.320;2023-02-18T14:32:40;93517.28;;;13.27;37.64
39789;BME280;25478;42.626;23.320;2023-02-18T14:43:46;93519.88;;;12.52;39.15
39789;BME280;25478;42.626;23.320;2023-02-18T14:46:38;93505.13;;;12.29;39.69
39789;BME280;25478;42.626;23.320;2023-02-18T14:49:24;93516.81;;;12.28;39.75
39789;BME280;25478;42.626;23.320;2023-02-18T14:51:54;93512.25;;;12.15;39.85
39789;BME280;25478;42.626;23.320;2023-02-18T14:54:24;93514.47;;;12.09;40.35
39789;BME280;25478;42.626;23.320;2023-02-18T14:57:13;93495.59;;;11.96;40.29
39789;BME280;25478;42.626;23.320;2023-02-18T14:59:41;93502.34;;;11.94;40.71
39789;BME280;25478;42.626;23.320;2023-02-18T15:02:22;93506.13;;;11.89;40.79
39789;BME280;25478;42.626;23.320;2023-02-18T15:04:49;93507.22;;;11.84;41.00
39789;BME280;25478;42.626;23.320;2023-02-18T15:07:18;93501.53;;;11.79;41.02
39789;BME280;25478;42.626;23.320;2023-02-18T15:09:49;93506.41;;;11.77;41.16
39789;BME280;25478;42.626;23.320;2023-02-18T15:12:19;93487.88;;;11.63;41.16
39789;BME280;25478;42.626;23.320;2023-02-18T15:14:47;93504.09;;;11.65;41.79
39789;BME280;25478;42.626;23.320;2023-02-18T15:17:18;93504.03;;;11.54;41.75
39789;BME280;25478;42.626;23.320;2023-02-18T15:20:11;93501.75;;;11.49;42.19
39789;BME280;25478;42.626;23.320;2023-02-18T15:22:36;93510.41;;;11.46;42.27
39789;BME280;25478;42.626;23.320;2023-02-18T15:25:02;93503.19;;;11.39;42.38
39789;BME280;25478;42.626;23.320;2023-02-18T15:27:30;93515.19;;;11.33;42.67